Time;durP1;ratioP1;P1;durP2;ratioP2;P2;SDS_P1;SDS_P2;PMS_P1;PMS_P2;Temp;Humidity;BMP_temperature;BMP_pressure;BME280_temperature;BME280_humidity;BME280_pressure;Samples;Min_cycle;Max_cycle;Signal;HPM_P1;HPM_P2
2022/02/09 00:02:34;;;;;;;9.88;3.37;;;;;;;4.83;93.57;100463.39;1662552;85;25633;-73
2022/02/09 00:07:43;;;;;;;7.67;4.28;;;;;;;4.84;93.53;100481.09;1662454;86;25493;-72
2022/02/09 00:10:07;;;;;;;12.28;3.98;;;;;;;4.83;93.43;100477.34;1629231;86;25714;-72
2022/02/09 00:12:44;;;;;;;12.28;2.85;;;;;;;4.82;93.36;100477.87;1662672;86;26243;-72
2022/02/09 00:17:45;;;;;;;9.50;3.70;;;;;;;4.80;93.24;100505.48;1662558;86;27404;-73
2022/02/09 00:23:13;;;;;;;13.95;5.10;;;;;;;4.79;93.14;100506.55;1662734;85;25351;-73
2022/02/09 00:33:30;;;;;;;12.95;3.75;;;;;;;4.72;92.66;100526.64;1631826;87;25508;-74
2022/02/09 00:38:46;;;;;;;12.37;4.33;;;;;;;4.67;92.67;100530.90;1631932;87;26228;-73
2022/02/09 00:44:21;;;;;;;11.40;5.55;;;;;;;4.63;92.74;100553.11;1631811;87;27244;-73
2022/02/09 01:11:42;;;;;;;14.33;4.30;;;;;;;4.43;92.76;100596.72;1657740;86;27351;-74
2022/02/09 01:38:54;;;;;;;11.03;3.58;;;;;;;4.35;92.90;100602.02;1680020;85;27614;-74
2022/02/09 01:43:11;;;;;;;12.35;4.03;;;;;;;4.34;92.83;100603.61;1655000;86;25654;-74
2022/02/09 01:57:14;;;;;;;12.10;4.15;;;;;;;4.32;92.90;100593.16;1650977;86;25606;-74
2022/02/09 01:59:44;;;;;;;12.03;4.30;;;;;;;4.30;92.80;100600.11;1629619;87;26390;-74
2022/02/09 02:02:11;;;;;;;12.18;4.05;;;;;;;4.29;92.81;100606.55;1650973;86;25677;-74
2022/02/09 02:04:39;;;;;;;12.60;3.98;;;;;;;4.29;92.85;100604.38;1629567;88;27435;-74
2022/02/09 02:07:16;;;;;;;9.88;4.40;;;;;;;4.29;92.87;100604.38;1628103;88;25616;-74
2022/02/09 02:09:37;;;;;;;11.95;4.25;;;;;;;4.28;92.86;100615.64;1678810;85;25582;-74
2022/02/09 02:12:12;;;;;;;11.78;4.65;;;;;;;4.28;92.91;100614.84;1656188;86;26334;-73
2022/02/09 02:14:44;;;;;;;13.22;4.45;;;;;;;4.27;92.91;100613.22;1655377;86;25678;-75
2022/02/09 02:17:21;;;;;;;14.45;4.70;;;;;;;4.27;92.90;100626.61;1650245;86;27902;-74
2022/02/09 02:19:48;;;;;;;12.85;4.75;;;;;;;4.27;92.92;100623.93;1649159;86;25982;-74
2022/02/09 02:27:55;;;;;;;17.37;4.60;;;;;;;4.26;93.02;100627.69;1679937;85;25408;-74
2022/02/09 02:33:10;;;;;;;12.25;4.40;;;;;;;4.25;92.96;100638.91;1650745;86;25243;-74
2022/02/09 03:13:06;;;;;;;13.43;5.05;;;;;;;4.26;92.74;100667.86;1634276;87;25590;-75
2022/02/09 03:15:38;;;;;;;12.85;4.65;;;;;;;4.25;92.73;100675.61;1634404;87;25616;-73
2022/02/09 03:50:27;;;;;;;17.17;5.55;;;;;;;3.78;91.89;100686.98;1638269;87;27380;-73
2022/02/09 03:53:02;;;;;;;11.48;5.12;;;;;;;3.71;91.91;100696.05;1636533;87;25497;-73
2022/02/09 03:57:44;;;;;;;11.83;5.20;;;;;;;3.64;91.98;100699.44;1638684;87;25563;-73
2022/02/09 04:00:00;;;;;;;12.93;5.05;;;;;;;3.60;92.17;100706.36;1636822;87;25599;-73
2022/02/09 04:02:29;;;;;;;11.15;5.60;;;;;;;3.59;92.44;100710.08;1639084;87;27454;-73
2022/02/09 04:04:57;;;;;;;12.23;5.35;;;;;;;3.59;92.60;100713.30;1638659;87;25436;-73
2022/02/09 04:07:24;;;;;;;20.57;6.15;;;;;;;3.58;92.79;100713.84;1638685;87;25626;-73
2022/02/09 04:09:54;;;;;;;14.18;6.12;;;;;;;3.59;93.09;100713.30;1638333;87;25661;-73
2022/02/09 04:15:31;;;;;;;12.85;5.67;;;;;;;3.61;93.49;100714.68;1638673;87;27395;-73
2022/02/09 04:18:09;;;;;;;12.50;4.85;;;;;;;3.63;93.59;100715.23;1637554;87;25448;-73
2022/02/09 04:36:35;;;;;;;13.45;7.17;;;;;;;3.81;94.52;100710.03;1679631;85;26278;-73
2022/02/09 04:39:06;;;;;;;16.90;7.65;;;;;;;3.83;94.50;100703.09;1655083;86;25438;-73
2022/02/09 04:41:54;;;;;;;18.27;7.55;;;;;;;3.87;94.53;100713.59;1678843;85;27332;-73
2022/02/09 04:44:17;;;;;;;17.32;7.92;;;;;;;3.90;94.57;100716.56;1675887;85;26008;-73
2022/02/09 04:49:33;;;;;;;15.98;7.50;;;;;;;3.97;94.62;100712.84;1650887;86;25687;-73
2022/02/09 04:52:00;;;;;;;24.80;8.55;;;;;;;3.99;94.60;100722.25;1626683;88;25667;-72
2022/02/09 04:59:34;;;;;;;21.82;9.10;;;;;;;4.06;94.64;100711.34;1628182;88;25480;-73
2022/02/09 05:18:50;;;;;;;23.32;9.65;;;;;;;3.92;93.74;100717.64;1679835;85;25588;-73
2022/02/09 05:26:20;;;;;;;17.20;10.45;;;;;;;3.82;94.14;100724.24;1629492;87;25489;-72
2022/02/09 05:28:33;;;;;;;20.52;10.35;;;;;;;3.79;94.15;100720.19;1677520;85;26032;-73
2022/02/09 05:31:00;;;;;;;17.65;9.40;;;;;;;3.76;94.05;100727.92;1679756;85;25517;-73
2022/02/09 05:33:26;;;;;;;19.50;10.50;;;;;;;3.70;93.97;100718.50;1679765;85;28041;-73
2022/02/09 05:35:53;;;;;;;18.73;9.45;;;;;;;3.69;94.03;100728.12;1679699;85;25652;-73
2022/02/09 05:38:19;;;;;;;24.52;10.45;;;;;;;3.66;94.11;100724.09;1679774;85;25593;-73
2022/02/09 05:40:46;;;;;;;24.47;10.78;;;;;;;3.64;94.16;100726.19;1679733;85;25639;-73
2022/02/09 05:43:15;;;;;;;19.25;10.60;;;;;;;3.63;94.23;100731.81;1679816;85;25667;-73
2022/02/09 05:50:53;;;;;;;27.50;10.23;;;;;;;3.58;94.54;100733.10;1679700;85;25424;-73
2022/02/09 05:53:19;;;;;;;18.98;10.00;;;;;;;3.58;94.82;100737.11;1678726;85;25705;-72
2022/02/09 05:55:48;;;;;;;22.42;10.03;;;;;;;3.58;95.23;100731.22;1679287;85;25412;-73
2022/02/09 06:00:59;;;;;;;27.77;12.35;;;;;;;3.61;95.37;100744.61;1679680;85;25629;-71
2022/02/09 06:03:26;;;;;;;18.85;10.20;;;;;;;3.62;95.52;100736.34;1679974;85;25652;-73
2022/02/09 06:05:52;;;;;;;24.47;10.58;;;;;;;3.65;95.42;100751.89;1679699;85;26391;-73
2022/02/09 06:08:19;;;;;;;21.33;11.18;;;;;;;3.66;95.39;100734.80;1679806;85;25487;-73
2022/02/09 06:10:52;;;;;;;21.05;9.85;;;;;;;3.66;95.37;100731.29;1679707;85;27921;-73
2022/02/09 06:13:21;;;;;;;26.07;11.12;;;;;;;3.67;95.24;100739.61;1655384;86;25585;-72
2022/02/09 06:16:02;;;;;;;19.12;9.60;;;;;;;3.67;95.17;100748.97;1649743;86;25583;-73
2022/02/09 06:20:58;;;;;;;18.17;9.48;;;;;;;3.68;95.12;100743.91;1656306;86;25592;-72
2022/02/09 06:23:26;;;;;;;22.82;10.13;;;;;;;3.65;95.22;100749.22;1679753;85;27398;-73
2022/02/09 06:25:53;;;;;;;23.10;10.28;;;;;;;3.66;95.23;100752.69;1679594;85;25407;-73
2022/02/09 06:28:19;;;;;;;21.73;11.70;;;;;;;3.65;95.24;100761.26;1679707;85;25420;-73
2022/02/09 06:30:46;;;;;;;32.00;14.45;;;;;;;3.65;95.39;100761.26;1656871;86;25678;-73
2022/02/09 06:33:14;;;;;;;19.07;10.18;;;;;;;3.66;95.45;100757.53;1671992;85;25414;-74
2022/02/09 06:35:40;;;;;;;18.45;10.35;;;;;;;3.69;95.59;100762.90;1652432;85;27545;-74
2022/02/09 06:38:07;;;;;;;24.30;9.75;;;;;;;3.72;95.65;100769.09;1671643;85;25611;-74
2022/02/09 06:40:42;;;;;;;26.33;11.08;;;;;;;3.77;95.78;100760.32;1671758;85;25569;-74
2022/02/09 06:43:04;;;;;;;18.48;9.75;;;;;;;3.81;95.88;100770.78;1671285;85;26429;-75
2022/02/09 06:45:36;;;;;;;18.90;9.88;;;;;;;3.83;95.83;100765.98;1672296;85;25645;-73
2022/02/09 06:47:58;;;;;;;19.50;9.53;;;;;;;3.86;95.74;100780.20;1638618;87;26879;-74
2022/02/09 06:50:33;;;;;;;18.65;8.43;;;;;;;3.85;95.58;100774.05;1662054;85;25315;-73
2022/02/09 06:53:09;;;;;;;22.52;9.58;;;;;;;3.86;95.50;100775.65;1661706;85;25560;-73
2022/02/09 06:55:27;;;;;;;20.25;9.00;;;;;;;3.87;95.35;100772.46;1661653;85;25661;-74
2022/02/09 07:00:23;;;;;;;16.23;9.00;;;;;;;3.84;95.26;100775.64;1662230;86;27382;-74
2022/02/09 07:02:50;;;;;;;18.35;9.68;;;;;;;3.82;95.15;100776.42;1662113;86;25388;-73
2022/02/09 07:05:18;;;;;;;27.00;9.88;;;;;;;3.81;95.34;100774.80;1662291;86;25416;-74
2022/02/09 07:07:45;;;;;;;18.57;10.13;;;;;;;3.83;95.52;100779.36;1662046;86;26187;-74
2022/02/09 07:10:13;;;;;;;19.35;9.03;;;;;;;3.83;95.48;100776.69;1662248;86;25577;-74
2022/02/09 07:12:41;;;;;;;23.42;10.25;;;;;;;3.88;95.56;100783.43;1638963;86;27344;-73
2022/02/09 07:15:13;;;;;;;21.23;10.90;;;;;;;3.90;95.58;100778.12;1671907;85;25449;-72
2022/02/09 07:17:37;;;;;;;17.10;9.55;;;;;;;3.95;95.64;100790.75;1671497;85;25473;-73
2022/02/09 07:20:26;;;;;;;21.70;9.38;;;;;;;4.03;95.66;100776.09;1671733;85;25692;-73
2022/02/09 07:22:47;;;;;;;22.40;9.80;;;;;;;4.10;95.58;100778.85;1670235;85;25427;-73
2022/02/09 07:25:16;;;;;;;21.33;10.60;;;;;;;4.25;96.23;100783.52;1638853;87;28049;-73
2022/02/09 07:30:13;;;;;;;25.32;9.80;;;;;;;4.59;96.43;100795.86;1662371;84;25485;-73
2022/02/09 07:32:40;;;;;;;19.23;9.90;;;;;;;4.77;96.13;100786.62;1689920;84;25631;-72
2022/02/09 07:35:08;;;;;;;17.50;9.05;;;;;;;4.94;95.54;100795.81;1692466;84;25695;-74
2022/02/09 07:37:35;;;;;;;18.00;8.37;;;;;;;5.11;95.19;100800.50;1663936;86;27476;-72
2022/02/09 07:40:04;;;;;;;18.25;8.45;;;;;;;5.30;94.85;100800.86;1692481;84;25671;-72
2022/02/09 07:42:31;;;;;;;26.05;9.38;;;;;;;5.53;94.96;100789.41;1692145;84;25673;-73
2022/02/09 07:45:26;;;;;;;16.48;8.23;;;;;;;5.73;94.25;100786.79;1679217;84;25704;-73
2022/02/09 07:52:51;;;;;;;14.23;6.97;;;;;;;6.88;89.66;100783.39;1668855;85;25625;-72
2022/02/09 07:55:07;;;;;;;16.35;7.40;;;;;;;7.38;90.55;100782.17;1638678;86;25484;-71
2022/02/09 07:57:34;;;;;;;15.00;7.20;;;;;;;8.02;89.79;100789.13;1668864;86;25592;-71
2022/02/09 08:00:00;;;;;;;17.90;7.45;;;;;;;8.63;88.90;100797.30;1668881;86;25641;-72
2022/02/09 08:02:29;;;;;;;16.57;6.50;;;;;;;9.08;85.81;100791.76;1668806;86;26517;-73
2022/02/09 08:04:55;;;;;;;17.15;6.35;;;;;;;9.16;85.86;100794.62;1668860;86;25593;-73
2022/02/09 08:07:22;;;;;;;13.75;6.78;;;;;;;9.27;82.66;100791.26;1668973;86;25725;-72
2022/02/09 08:09:48;;;;;;;12.43;5.67;;;;;;;9.28;83.64;100792.05;1668917;86;26382;-72
2022/02/09 08:20:33;;;;;;;16.25;5.65;;;;;;;9.38;83.76;100801.94;1669042;86;25416;-74
2022/02/09 08:28:18;;;;;;;14.38;5.00;;;;;;;10.79;84.96;100792.58;1667912;86;27909;-76
2022/02/09 08:30:46;;;;;;;12.98;5.10;;;;;;;10.79;79.58;100809.38;1664196;86;25418;-72
2022/02/09 08:33:04;;;;;;;14.63;6.08;;;;;;;10.59;79.44;100806.46;1687061;84;25677;-72
2022/02/09 08:35:24;;;;;;;13.88;4.85;;;;;;;10.45;78.47;100805.89;1689925;83;25686;-74
2022/02/09 08:37:52;;;;;;;12.55;4.70;;;;;;;10.35;77.07;100812.81;1681095;85;25667;-68
2022/02/09 08:40:22;;;;;;;16.17;4.12;;;;;;;10.06;77.64;100813.75;1681016;85;27338;-67
2022/02/09 08:42:47;;;;;;;15.90;5.15;;;;;;;9.78;75.41;100803.88;1680760;85;25579;-72
2022/02/09 08:45:13;;;;;;;14.68;5.42;;;;;;;9.42;76.52;100801.08;1681047;85;25407;-72
2022/02/09 08:47:40;;;;;;;14.65;4.92;;;;;;;9.21;77.10;100787.55;1681061;85;25737;-72
2022/02/09 08:50:06;;;;;;;13.75;5.10;;;;;;;9.06;78.06;100782.59;1681073;85;25406;-73
2022/02/09 08:52:33;;;;;;;14.75;6.08;;;;;;;9.02;78.23;100790.19;1681044;85;27265;-73
2022/02/09 08:55:00;;;;;;;17.20;6.20;;;;;;;8.97;78.08;100788.34;1680943;85;25540;-72
2022/02/09 08:57:27;;;;;;;23.60;9.78;;;;;;;8.86;77.30;100782.26;1681100;85;25418;-73
2022/02/09 08:59:54;;;;;;;20.30;8.15;;;;;;;8.79;78.57;100781.24;1681057;85;25747;-73
2022/02/09 09:02:23;;;;;;;11.65;5.35;;;;;;;8.79;78.58;100777.20;1681122;84;25588;-73
2022/02/09 09:04:54;;;;;;;17.05;6.97;;;;;;;8.77;78.59;100773.98;1680940;85;27331;-73
2022/02/09 09:07:25;;;;;;;13.83;5.20;;;;;;;8.82;78.81;100784.45;1680824;85;25648;-72
2022/02/09 09:10:14;;;;;;;13.20;6.20;;;;;;;8.85;78.61;100773.09;1679163;84;25386;-73
2022/02/09 09:40:35;;;;;;;13.90;4.95;;;;;;;9.47;76.35;100775.92;1652916;86;27933;-73
2022/02/09 10:04:42;;;;;;;12.25;4.22;;;;;;;9.46;77.87;100762.95;1661682;86;25381;-72
2022/02/09 10:32:51;;;;;;;19.15;7.10;;;;;;;8.26;78.22;100782.48;1563891;91;25553;-68
2022/02/09 10:35:36;;;;;;;11.20;6.53;;;;;;;8.18;78.69;100789.27;1562282;91;26312;-72
2022/02/09 10:38:00;;;;;;;12.93;6.53;;;;;;;8.11;78.87;100779.91;1561868;91;25784;-71
2022/02/09 10:40:45;;;;;;;12.50;5.95;;;;;;;8.04;79.50;100778.88;1562805;91;27981;-70
2022/02/09 10:43:26;;;;;;;13.25;5.75;;;;;;;7.95;80.08;100761.67;1561935;90;25810;-70
2022/02/09 10:46:12;;;;;;;16.12;7.62;;;;;;;7.94;80.63;100758.73;1557976;91;25726;-71
2022/02/09 10:48:55;;;;;;;10.93;6.65;;;;;;;7.90;80.95;100750.41;1589207;90;25770;-69
2022/02/09 10:51:34;;;;;;;15.60;7.35;;;;;;;7.86;81.56;100756.88;1586305;90;25833;-70
2022/02/09 10:54:25;;;;;;;14.35;7.05;;;;;;;7.82;81.94;100754.48;1569769;90;27372;-70
2022/02/09 10:56:57;;;;;;;16.37;8.05;;;;;;;7.78;82.45;100746.72;1638254;86;25595;-70
2022/02/09 10:59:29;;;;;;;11.90;7.85;;;;;;;7.75;82.67;100745.92;1686310;84;25692;-70
2022/02/09 11:02:00;;;;;;;16.87;8.88;;;;;;;7.76;83.16;100738.64;1642323;86;25694;-71
2022/02/09 11:04:31;;;;;;;12.05;7.90;;;;;;;7.72;83.46;100738.95;1675608;84;25644;-72
2022/02/09 11:06:58;;;;;;;14.73;8.55;;;;;;;7.70;83.65;100739.22;1671192;84;27408;-71
2022/02/09 11:09:25;;;;;;;13.05;9.58;;;;;;;7.72;84.03;100733.56;1676483;84;25836;-71
2022/02/09 11:11:52;;;;;;;16.87;9.23;;;;;;;7.70;84.10;100726.30;1660937;84;26455;-71
2022/02/09 11:14:22;;;;;;;14.05;8.18;;;;;;;7.66;84.13;100726.03;1663733;85;26179;-70
2022/02/09 11:16:59;;;;;;;14.18;8.88;;;;;;;7.63;84.41;100719.88;1664111;85;25429;-70
2022/02/09 11:19:40;;;;;;;15.70;7.85;;;;;;;7.64;84.62;100717.44;1664419;84;27306;-70
2022/02/09 11:22:22;;;;;;;14.65;9.00;;;;;;;7.58;84.68;100718.02;1666100;84;27230;-75
2022/02/09 11:24:47;;;;;;;12.37;8.40;;;;;;;7.59;84.89;100717.47;1611636;87;25394;-75
2022/02/09 11:27:26;;;;;;;16.15;8.10;;;;;;;7.60;85.45;100709.11;1612217;88;25630;-75
2022/02/09 11:29:54;;;;;;;12.03;7.72;;;;;;;7.58;85.36;100711.84;1636561;86;25415;-75
2022/02/09 11:32:32;;;;;;;13.95;8.23;;;;;;;7.56;85.37;100704.55;1614535;88;27382;-74
2022/02/09 11:46:26;;;;;;;15.10;7.85;;;;;;;7.27;86.30;100704.73;1612816;88;27366;-75
2022/02/09 11:54:55;;;;;;;12.82;7.37;;;;;;;7.06;87.37;100702.64;1653146;86;25698;-74
2022/02/09 12:00:36;;;;;;;11.35;7.35;;;;;;;6.99;88.34;100700.80;1663519;86;27951;-74
2022/02/09 12:11:39;;;;;;;10.60;6.62;;;;;;;6.80;90.59;100695.77;1672475;84;25743;-74
2022/02/09 12:16:49;;;;;;;10.18;6.55;;;;;;;6.68;91.36;100689.34;1656921;86;26017;-76
2022/02/09 12:19:36;;;;;;;11.78;7.78;;;;;;;6.63;91.25;100682.08;1663084;85;25838;-73
2022/02/09 12:22:13;;;;;;;9.45;6.83;;;;;;;6.62;91.61;100679.66;1680464;84;25644;-74
2022/02/09 12:24:36;;;;;;;10.53;6.87;;;;;;;6.60;92.53;100675.91;1683574;84;25642;-74
2022/02/09 12:27:13;;;;;;;11.30;6.87;;;;;;;6.59;92.36;100678.86;1685371;84;27366;-73
2022/02/09 12:29:43;;;;;;;14.23;8.13;;;;;;;6.61;92.57;100680.22;1667253;84;26647;-73
2022/02/09 12:32:20;;;;;;;15.65;7.80;;;;;;;6.62;93.19;100675.63;1632619;86;25447;-72
2022/02/09 12:35:08;;;;;;;14.35;8.03;;;;;;;6.63;93.17;100674.57;1638473;87;26087;-71
2022/02/09 12:37:38;;;;;;;12.45;8.05;;;;;;;6.64;93.66;100681.02;1638560;87;25921;-71
2022/02/09 12:40:15;;;;;;;14.03;8.95;;;;;;;6.64;93.46;100674.81;1655520;86;27343;-70
2022/02/09 12:42:47;;;;;;;13.30;8.00;;;;;;;6.64;95.76;100672.95;1665169;84;25655;-71
2022/02/09 12:45:21;;;;;;;14.93;9.70;;;;;;;6.65;94.10;100671.06;1670343;85;25759;-70
2022/02/09 12:47:56;;;;;;;14.83;8.75;;;;;;;6.65;94.25;100669.17;1677176;84;25724;-72
2022/02/09 12:50:30;;;;;;;14.33;9.15;;;;;;;6.65;94.69;100671.86;1599210;89;25753;-72
2022/02/09 12:52:57;;;;;;;14.68;9.88;;;;;;;6.66;94.64;100665.42;1600775;89;27947;-72
2022/02/09 12:55:28;;;;;;;17.05;10.32;;;;;;;6.68;95.25;100668.63;1598441;89;25792;-72
2022/02/09 12:58:00;;;;;;;19.95;11.45;;;;;;;6.70;95.50;100664.33;1580891;89;25796;-70
2022/02/09 13:00:47;;;;;;;16.37;10.78;;;;;;;6.70;96.21;100672.39;1604551;89;26159;-71
2022/02/09 13:03:20;;;;;;;16.82;10.88;;;;;;;6.69;95.86;100665.39;1601736;89;25780;-71
2022/02/09 13:05:56;;;;;;;21.62;11.93;;;;;;;6.69;95.67;100663.53;1598103;89;28154;-72
2022/02/09 13:08:26;;;;;;;18.05;11.75;;;;;;;6.72;95.82;100664.33;1587557;89;26583;-71
2022/02/09 13:13:36;;;;;;;23.75;14.55;;;;;;;6.77;95.87;100656.77;1555346;92;25781;-70
2022/02/09 13:24:30;;;;;;;22.90;13.93;;;;;;;6.82;97.89;100658.09;1529668;93;25868;-72
2022/02/09 14:14:58;;;;;;;24.90;16.65;;;;;;;7.17;99.58;100629.96;1592174;88;27365;-71
2022/02/09 14:47:22;;;;;;;23.40;17.50;;;;;;;7.18;100.00;100601.98;1509536;93;27465;-71
2022/02/09 14:56:57;;;;;;;28.52;19.45;;;;;;;7.18;100.00;100604.13;1445625;98;25916;-71
2022/02/09 15:01:57;;;;;;;28.12;19.27;;;;;;;7.19;100.00;100611.68;1425929;99;26505;-72
2022/02/09 15:04:30;;;;;;;27.10;20.12;;;;;;;7.20;100.00;100612.75;1422023;99;25810;-71
2022/02/09 15:07:24;;;;;;;26.17;19.65;;;;;;;7.20;100.00;100616.78;1426658;99;27622;-71
2022/02/09 15:12:16;;;;;;;29.02;20.10;;;;;;;7.23;100.00;100623.48;1456317;97;25746;-72
2022/02/09 15:14:48;;;;;;;30.65;20.37;;;;;;;7.25;99.95;100622.66;1442250;97;25866;-73
2022/02/09 15:17:28;;;;;;;28.62;20.68;;;;;;;7.26;99.93;100631.00;1459842;97;25678;-72
2022/02/09 15:19:44;;;;;;;25.10;18.98;;;;;;;7.28;99.73;100628.83;1457408;97;27505;-72
2022/02/09 15:22:09;;;;;;;27.90;18.85;;;;;;;7.28;99.68;100637.70;1459170;94;26216;-73
2022/02/09 15:24:42;;;;;;;27.82;20.45;;;;;;;7.28;99.65;100634.22;1499099;94;25747;-71
2022/02/09 15:27:20;;;;;;;24.40;18.45;;;;;;;7.30;99.45;100633.39;1497776;94;25791;-74
2022/02/09 15:29:44;;;;;;;22.98;18.12;;;;;;;7.29;99.50;100627.77;1491410;94;25566;-72
2022/02/09 15:32:22;;;;;;;24.43;17.87;;;;;;;7.34;99.35;100625.04;1491298;94;27377;-71
2022/02/09 15:34:48;;;;;;;23.60;18.35;;;;;;;7.36;99.19;100651.13;1517049;93;25980;-74
2022/02/09 15:37:22;;;;;;;27.52;18.75;;;;;;;7.36;99.18;100623.42;1542845;91;25672;-71
2022/02/09 15:39:47;;;;;;;22.67;17.25;;;;;;;7.36;98.92;100634.98;1587387;87;25737;-71
2022/02/09 15:42:43;;;;;;;23.77;17.62;;;;;;;7.36;98.89;100630.94;1634301;86;25706;-71
2022/02/09 15:59:13;;;;;;;21.20;16.10;;;;;;;7.32;99.26;100643.87;1634788;87;27324;-70
2022/02/09 16:25:38;;;;;;;22.70;15.28;;;;;;;7.08;100.00;100627.05;1650773;86;27596;-72
2022/02/09 16:38:58;;;;;;;22.65;15.53;;;;;;;7.02;100.00;100616.08;1678363;84;27384;-70
2022/02/09 16:46:24;;;;;;;21.27;13.53;;;;;;;7.02;100.00;100635.70;1588304;88;25797;-67
2022/02/09 16:49:24;;;;;;;22.35;14.35;;;;;;;7.03;100.00;100622.53;1581632;90;26474;-68
2022/02/09 16:51:50;;;;;;;20.57;14.43;;;;;;;7.04;99.89;100621.97;1598088;89;27380;-71
2022/02/09 16:57:02;;;;;;;18.65;14.58;;;;;;;7.03;99.78;100617.14;1603111;89;25866;-71
2022/02/09 17:18:54;;;;;;;21.27;13.93;;;;;;;7.09;98.19;100611.19;1566686;90;27431;-72
2022/02/09 17:21:21;;;;;;;20.40;14.00;;;;;;;7.09;98.02;100615.22;1568012;90;25812;-69
2022/02/09 17:23:51;;;;;;;25.57;14.07;;;;;;;7.08;97.95;100609.57;1584958;88;25837;-70
2022/02/09 17:26:17;;;;;;;18.80;13.58;;;;;;;7.08;97.56;100599.63;1636539;87;25718;-70
2022/02/09 17:28:55;;;;;;;21.70;13.95;;;;;;;7.08;97.46;100611.73;1615379;87;26024;-70
2022/02/09 17:39:25;;;;;;;21.15;14.33;;;;;;;7.08;96.61;100627.05;1628400;87;32920;-70
2022/02/09 17:55:31;;;;;;;21.65;13.72;;;;;;;7.05;95.71;100614.98;1630013;87;25794;-70
2022/02/09 17:57:48;;;;;;;21.77;13.10;;;;;;;7.06;95.79;100607.70;1628483;86;28195;-70
2022/02/09 18:00:16;;;;;;;20.80;13.53;;;;;;;7.07;95.58;100598.56;1628203;87;25817;-70
2022/02/09 18:02:47;;;;;;;20.43;13.25;;;;;;;7.07;95.51;100596.67;1639284;87;25913;-70
2022/02/09 18:05:21;;;;;;;19.80;13.08;;;;;;;7.08;95.19;100584.02;1631246;87;26442;-71
2022/02/09 18:07:47;;;;;;;25.00;13.98;;;;;;;7.09;94.73;100611.98;1628112;87;26153;-71
2022/02/09 18:15:59;;;;;;;19.20;12.82;;;;;;;7.11;94.19;100605.78;1626158;87;25744;-70
2022/02/09 18:47:59;;;;;;;17.12;12.07;;;;;;;7.07;93.30;100600.70;1516334;93;25771;-71
2022/02/09 19:03:38;;;;;;;15.13;10.70;;;;;;;7.16;92.13;100599.58;1517162;94;27361;-70
2022/02/09 19:06:18;;;;;;;18.48;11.33;;;;;;;7.18;92.02;100617.58;1516558;94;25584;-71
2022/02/09 19:08:52;;;;;;;17.32;11.68;;;;;;;7.19;91.77;100603.61;1501568;93;26387;-71
2022/02/09 19:16:39;;;;;;;17.70;11.50;;;;;;;7.21;90.67;100606.82;1641128;87;28218;-71
2022/02/09 19:27:35;;;;;;;14.23;10.25;;;;;;;7.25;89.13;100610.03;1641235;87;25583;-70
2022/02/09 19:45:55;;;;;;;14.38;10.00;;;;;;;7.27;88.18;100609.20;1621309;87;25703;-69
2022/02/09 19:48:17;;;;;;;14.90;9.58;;;;;;;7.29;87.08;100616.45;1642893;86;25596;-69
2022/02/09 19:51:05;;;;;;;17.20;10.00;;;;;;;7.31;87.70;100620.76;1644404;87;25816;-69
2022/02/09 19:55:53;;;;;;;14.20;9.38;;;;;;;7.30;87.39;100609.17;1584873;90;27380;-69
2022/02/09 19:58:19;;;;;;;14.38;9.58;;;;;;;7.30;87.33;100618.59;1583681;89;26602;-69
2022/02/09 20:00:43;;;;;;;12.53;9.35;;;;;;;7.31;87.63;100620.20;1584591;89;25536;-68
2022/02/09 20:03:10;;;;;;;14.80;9.08;;;;;;;7.31;87.69;100616.72;1584729;90;26292;-68
2022/02/09 20:05:36;;;;;;;15.23;10.20;;;;;;;7.32;87.71;100612.93;1584609;90;25702;-68
2022/02/09 20:08:03;;;;;;;14.47;9.05;;;;;;;7.31;87.53;100615.38;1584809;90;28036;-72
2022/02/09 20:10:32;;;;;;;21.95;9.63;;;;;;;7.31;86.96;100622.90;1584781;90;25728;-69
2022/02/09 20:12:59;;;;;;;14.07;9.43;;;;;;;7.30;87.48;100630.70;1584756;90;25748;-70
2022/02/09 20:15:29;;;;;;;16.40;9.13;;;;;;;7.32;87.50;100620.48;1584754;90;25697;-69
2022/02/09 20:17:56;;;;;;;12.60;8.95;;;;;;;7.30;86.06;100636.08;1584797;90;25788;-69
2022/02/09 20:20:26;;;;;;;11.55;8.80;;;;;;;7.31;87.05;100625.59;1584630;90;27399;-69
2022/02/09 20:22:53;;;;;;;14.47;9.50;;;;;;;7.31;86.64;100631.52;1584306;89;25906;-69
2022/02/09 20:25:21;;;;;;;15.07;9.00;;;;;;;7.30;86.47;100623.97;1585016;90;25654;-70
2022/02/09 20:27:51;;;;;;;15.68;9.60;;;;;;;7.28;86.17;100623.45;1584541;90;25698;-71
2022/02/09 20:30:21;;;;;;;14.30;9.73;;;;;;;7.29;86.54;100637.18;1584959;89;25718;-69
2022/02/09 20:32:52;;;;;;;14.60;9.30;;;;;;;7.28;85.85;100630.97;1609489;87;27504;-70
2022/02/09 20:35:18;;;;;;;20.95;12.63;;;;;;;7.28;86.50;100633.66;1638771;86;27167;-70
2022/02/09 20:37:50;;;;;;;16.97;10.05;;;;;;;7.28;86.31;100618.86;1638657;87;25630;-69
2022/02/09 20:40:22;;;;;;;15.78;10.23;;;;;;;7.27;86.22;100637.45;1638634;87;25678;-69
2022/02/09 20:42:55;;;;;;;14.20;9.90;;;;;;;7.26;85.80;100617.00;1637698;87;25666;-69
2022/02/09 20:45:45;;;;;;;14.45;9.40;;;;;;;7.25;85.25;100627.52;1638269;87;27491;-69
2022/02/09 20:48:04;;;;;;;13.58;9.20;;;;;;;7.25;86.11;100626.17;1635414;87;26006;-70
2022/02/09 20:50:30;;;;;;;14.73;9.80;;;;;;;7.25;86.04;100635.59;1637816;86;25763;-71
2022/02/09 20:52:59;;;;;;;14.03;9.33;;;;;;;7.25;85.69;100633.42;1638429;87;25665;-69
2022/02/09 20:55:27;;;;;;;15.38;9.40;;;;;;;7.25;85.96;100626.69;1638748;87;25742;-70
2022/02/09 20:57:54;;;;;;;15.38;9.28;;;;;;;7.24;85.06;100628.59;1638457;87;27412;-70
2022/02/09 21:00:28;;;;;;;13.62;9.48;;;;;;;7.24;85.77;100620.52;1638645;87;25454;-70
2022/02/09 21:03:02;;;;;;;15.98;11.20;;;;;;;7.23;85.64;100618.89;1637496;87;25776;-70
2022/02/09 21:08:09;;;;;;;14.15;9.30;;;;;;;7.21;85.74;100608.95;1584744;90;25852;-70
2022/02/09 21:10:35;;;;;;;14.25;9.25;;;;;;;7.21;85.93;100608.95;1578366;90;27755;-70
2022/02/09 21:12:48;;;;;;;15.65;10.68;;;;;;;7.20;85.65;100603.85;1587373;87;25790;-70
2022/02/09 21:15:34;;;;;;;17.65;10.00;;;;;;;7.18;85.62;100610.86;1603496;89;25708;-70
2022/02/09 21:52:54;;;;;;;15.35;10.58;;;;;;;7.05;86.89;100619.56;1555694;92;25707;-71
2022/02/09 21:57:53;;;;;;;16.75;10.23;;;;;;;7.04;87.07;100617.94;1536430;92;25809;-70
2022/02/09 22:07:02;;;;;;;17.42;11.88;;;;;;;6.99;87.44;100613.38;1555692;92;25713;-69
2022/02/09 22:27:46;;;;;;;16.12;11.22;;;;;;;6.95;87.79;100594.03;1640046;87;25574;-70
2022/02/09 22:47:34;;;;;;;19.67;11.88;;;;;;;6.96;87.88;100576.83;1667148;86;25693;-70
2022/02/09 22:49:31;;;;;;;16.42;11.45;;;;;;;6.95;87.98;100580.06;1632692;87;25745;-71
2022/02/09 22:54:36;;;;;;;16.95;11.75;;;;;;;6.95;88.08;100595.38;1636903;86;25446;-70
2022/02/09 22:56:59;;;;;;;16.85;11.93;;;;;;;6.94;88.10;100595.92;1675925;85;27354;-70
2022/02/09 22:59:35;;;;;;;16.85;11.55;;;;;;;6.94;88.16;100593.79;1675486;85;25644;-71
2022/02/09 23:01:59;;;;;;;20.77;12.20;;;;;;;6.93;88.23;100587.61;1636366;86;25734;-71
2022/02/09 23:09:45;;;;;;;15.55;10.85;;;;;;;6.92;88.50;100596.75;1667116;86;27354;-71
2022/02/09 23:12:19;;;;;;;21.30;12.55;;;;;;;6.92;88.48;100586.00;1634829;86;25705;-70
2022/02/09 23:17:34;;;;;;;22.70;14.33;;;;;;;6.93;88.64;100588.96;1667124;86;26278;-70
2022/02/09 23:28:11;;;;;;;18.05;12.65;;;;;;;6.94;88.74;100589.20;1667361;86;25467;-70
2022/02/09 23:54:49;;;;;;;19.25;12.85;;;;;;;6.83;89.63;100584.43;1662431;86;25478;-71
2022/02/09 23:57:37;;;;;;;21.97;14.63;;;;;;;6.82;89.56;100586.84;1660713;86;25639;-72
